Airfield :
LOGIN :

Register | Disclaimer

   EN    FR    IT 

 










Legend :    VFR   Marginal VFR   IFR   Intensive IFR   Very Intensive IFR
Visi :
Ceiling :
>= 8 km
>= 3000ft
5 to 8 km
1000 to 3000 ft
1500m to 5 km
500 to 1000 ft
800 to 1500m
200 to 500 ft
< 800m
< 200 ft
Symbols :   Thunderstorms  Fog  Heavy snow  Heavy precipitations  Wind > 20 kt
SIGMETs :     Misc.  Thunderstorms  Icing  Turbulence  Mountain Waves  Volcanic Ashes






- Airport Elevation : 121 ft
- IATA code : HUY


EGNJ - Humberside

CURRENT METAR :
  • 270550Z AUTO 23005KT 0300 FG BKN000/// OVC039/// 04/04 Q1008

EXPIRED METARs :
  • 270520Z AUTO 24008KT 3600 BR SCT001/// BKN039/// 05/05 Q1008
  • 270450Z AUTO 24009KT 1700 BR BKN000/// OVC041/// 04/04 Q1008
  • 270420Z AUTO 24011KT 0300 FG OVC000/// 05/05 Q1008
  • 270350Z AUTO 24009KT 0500 FG OVC000/// 04/04 Q1007
  • 270320Z AUTO 23010KT 2200 BR BKN000/// 04/04 Q1007

TAF TAF EGNJ
Valid from the 27 at 06:00 until the 27 at 15:00 UTC


270458Z 2706/2715 24009KT 3000 BR BKN003
TEMPO 2706/2710 0300 FG BKN001
BECMG 2710/2713 9999 NSW SCT008
TEMPO 2710/2715 7000
ATIS : +44 1652 682 020



MET'MAP, your aeronautical weather chart ! - Copyright ORBIFLY December 2007 - Disclaimer

ORBIFLY MET'MAP TEAM :

Programming & Development : Alexandra Zaïnal
Concept & original design : Baudouin d'Aumeries
Assistance for programming : Marc-Olivier Méhu
Technical & hardware support : Manuel Goepfert

Contact : metmap@orbifly.com




SOURCES & CREDITS :

   NOAA